sensor_id;sensor_type;location;lat;lon;timestamp;P1;durP1;ratioP1;P2;durP2;ratioP2
9789;SDS011;4934;50.852;8.098;2023-05-17T00:01:22;9.85;;;3.90;;
9789;SDS011;4934;50.852;8.098;2023-05-17T00:03:47;7.53;;;3.10;;
9789;SDS011;4934;50.852;8.098;2023-05-17T00:06:13;10.75;;;3.75;;
9789;SDS011;4934;50.852;8.098;2023-05-17T00:08:39;8.88;;;4.80;;
9789;SDS011;4934;50.852;8.098;2023-05-17T00:11:04;9.68;;;4.82;;
9789;SDS011;4934;50.852;8.098;2023-05-17T00:13:30;14.05;;;5.60;;
9789;SDS011;4934;50.852;8.098;2023-05-17T00:15:55;11.80;;;3.88;;
9789;SDS011;4934;50.852;8.098;2023-05-17T00:18:21;10.45;;;3.65;;
9789;SDS011;4934;50.852;8.098;2023-05-17T00:20:46;9.18;;;3.55;;
9789;SDS011;4934;50.852;8.098;2023-05-17T00:23:12;17.23;;;4.55;;
9789;SDS011;4934;50.852;8.098;2023-05-17T00:25:37;12.07;;;5.25;;
9789;SDS011;4934;50.852;8.098;2023-05-17T00:28:03;8.27;;;3.28;;
9789;SDS011;4934;50.852;8.098;2023-05-17T00:30:29;7.65;;;2.92;;
9789;SDS011;4934;50.852;8.098;2023-05-17T00:32:54;10.48;;;3.25;;
9789;SDS011;4934;50.852;8.098;2023-05-17T00:35:20;6.97;;;3.30;;
9789;SDS011;4934;50.852;8.098;2023-05-17T00:37:46;12.40;;;3.10;;
9789;SDS011;4934;50.852;8.098;2023-05-17T00:40:12;11.32;;;3.13;;
9789;SDS011;4934;50.852;8.098;2023-05-17T00:42:39;12.77;;;3.00;;
9789;SDS011;4934;50.852;8.098;2023-05-17T00:45:05;5.68;;;3.03;;
9789;SDS011;4934;50.852;8.098;2023-05-17T00:47:31;9.00;;;3.20;;
9789;SDS011;4934;50.852;8.098;2023-05-17T00:49:57;8.65;;;3.08;;
9789;SDS011;4934;50.852;8.098;2023-05-17T00:52:22;10.98;;;2.83;;
9789;SDS011;4934;50.852;8.098;2023-05-17T00:54:49;13.00;;;3.17;;
9789;SDS011;4934;50.852;8.098;2023-05-17T00:57:15;8.48;;;3.13;;
9789;SDS011;4934;50.852;8.098;2023-05-17T00:59:41;9.88;;;3.40;;
9789;SDS011;4934;50.852;8.098;2023-05-17T01:02:11;6.55;;;3.00;;
9789;SDS011;4934;50.852;8.098;2023-05-17T01:04:37;8.15;;;3.10;;
9789;SDS011;4934;50.852;8.098;2023-05-17T01:07:03;8.13;;;2.97;;
9789;SDS011;4934;50.852;8.098;2023-05-17T01:09:29;7.05;;;2.42;;
9789;SDS011;4934;50.852;8.098;2023-05-17T01:14:32;7.72;;;3.10;;
9789;SDS011;4934;50.852;8.098;2023-05-17T01:17:34;6.80;;;3.70;;
9789;SDS011;4934;50.852;8.098;2023-05-17T01:23:01;8.05;;;3.03;;
9789;SDS011;4934;50.852;8.098;2023-05-17T01:28:24;6.63;;;3.05;;
9789;SDS011;4934;50.852;8.098;2023-05-17T01:30:51;10.68;;;3.17;;
9789;SDS011;4934;50.852;8.098;2023-05-17T01:33:19;5.75;;;3.03;;
9789;SDS011;4934;50.852;8.098;2023-05-17T01:35:45;5.03;;;2.63;;
9789;SDS011;4934;50.852;8.098;2023-05-17T01:38:11;7.07;;;3.00;;
9789;SDS011;4934;50.852;8.098;2023-05-17T01:40:38;8.00;;;3.03;;
9789;SDS011;4934;50.852;8.098;2023-05-17T01:43:14;7.75;;;3.17;;
9789;SDS011;4934;50.852;8.098;2023-05-17T01:45:51;10.27;;;3.00;;
9789;SDS011;4934;50.852;8.098;2023-05-17T01:48:27;8.07;;;4.43;;
9789;SDS011;4934;50.852;8.098;2023-05-17T01:50:58;8.77;;;3.00;;
9789;SDS011;4934;50.852;8.098;2023-05-17T01:53:28;9.05;;;3.17;;
9789;SDS011;4934;50.852;8.098;2023-05-17T01:56:00;8.65;;;3.47;;
9789;SDS011;4934;50.852;8.098;2023-05-17T01:58:36;11.85;;;3.58;;
9789;SDS011;4934;50.852;8.098;2023-05-17T02:01:09;6.03;;;3.20;;
9789;SDS011;4934;50.852;8.098;2023-05-17T02:03:35;7.18;;;3.17;;
9789;SDS011;4934;50.852;8.098;2023-05-17T02:06:00;8.55;;;3.05;;
9789;SDS011;4934;50.852;8.098;2023-05-17T02:08:26;9.90;;;3.78;;
9789;SDS011;4934;50.852;8.098;2023-05-17T02:10:51;6.18;;;3.05;;
9789;SDS011;4934;50.852;8.098;2023-05-17T02:13:17;8.40;;;2.92;;
9789;SDS011;4934;50.852;8.098;2023-05-17T02:15:43;11.10;;;3.15;;
9789;SDS011;4934;50.852;8.098;2023-05-17T02:18:08;12.68;;;3.42;;
9789;SDS011;4934;50.852;8.098;2023-05-17T02:20:35;9.98;;;3.80;;
9789;SDS011;4934;50.852;8.098;2023-05-17T02:23:01;9.10;;;3.08;;
9789;SDS011;4934;50.852;8.098;2023-05-17T02:25:26;14.45;;;3.20;;
9789;SDS011;4934;50.852;8.098;2023-05-17T02:27:52;10.45;;;3.20;;
9789;SDS011;4934;50.852;8.098;2023-05-17T02:30:17;6.68;;;3.40;;
9789;SDS011;4934;50.852;8.098;2023-05-17T02:32:46;7.40;;;2.90;;
9789;SDS011;4934;50.852;8.098;2023-05-17T02:35:12;13.13;;;4.35;;
9789;SDS011;4934;50.852;8.098;2023-05-17T02:37:37;19.17;;;3.20;;
9789;SDS011;4934;50.852;8.098;2023-05-17T02:40:04;10.13;;;3.63;;
9789;SDS011;4934;50.852;8.098;2023-05-17T02:42:34;9.57;;;3.95;;
9789;SDS011;4934;50.852;8.098;2023-05-17T02:45:00;5.40;;;2.97;;
9789;SDS011;4934;50.852;8.098;2023-05-17T02:47:25;9.07;;;3.42;;
9789;SDS011;4934;50.852;8.098;2023-05-17T02:49:51;9.05;;;3.40;;
9789;SDS011;4934;50.852;8.098;2023-05-17T02:52:17;13.85;;;3.53;;
9789;SDS011;4934;50.852;8.098;2023-05-17T02:54:42;9.02;;;3.25;;
9789;SDS011;4934;50.852;8.098;2023-05-17T02:57:08;7.18;;;3.38;;
9789;SDS011;4934;50.852;8.098;2023-05-17T02:59:34;9.48;;;3.58;;
9789;SDS011;4934;50.852;8.098;2023-05-17T03:02:00;10.55;;;3.97;;
9789;SDS011;4934;50.852;8.098;2023-05-17T03:04:26;7.50;;;3.40;;
9789;SDS011;4934;50.852;8.098;2023-05-17T03:06:51;11.30;;;3.33;;
9789;SDS011;4934;50.852;8.098;2023-05-17T03:09:17;10.60;;;3.55;;
9789;SDS011;4934;50.852;8.098;2023-05-17T03:11:43;8.38;;;2.90;;
9789;SDS011;4934;50.852;8.098;2023-05-17T03:14:09;7.90;;;3.28;;
9789;SDS011;4934;50.852;8.098;2023-05-17T03:16:34;6.63;;;2.90;;
9789;SDS011;4934;50.852;8.098;2023-05-17T03:19:00;7.60;;;3.25;;
9789;SDS011;4934;50.852;8.098;2023-05-17T03:21:26;10.65;;;3.58;;
9789;SDS011;4934;50.852;8.098;2023-05-17T03:23:51;7.15;;;3.10;;
9789;SDS011;4934;50.852;8.098;2023-05-17T03:26:17;17.77;;;4.63;;
9789;SDS011;4934;50.852;8.098;2023-05-17T03:28:43;13.75;;;5.80;;
9789;SDS011;4934;50.852;8.098;2023-05-17T03:31:09;8.40;;;3.78;;
9789;SDS011;4934;50.852;8.098;2023-05-17T03:33:35;13.48;;;5.18;;
9789;SDS011;4934;50.852;8.098;2023-05-17T03:36:01;19.15;;;6.03;;
9789;SDS011;4934;50.852;8.098;2023-05-17T03:38:27;19.90;;;6.30;;
9789;SDS011;4934;50.852;8.098;2023-05-17T03:40:53;8.20;;;4.57;;
9789;SDS011;4934;50.852;8.098;2023-05-17T03:43:18;10.65;;;4.25;;
9789;SDS011;4934;50.852;8.098;2023-05-17T03:45:44;16.77;;;4.40;;
9789;SDS011;4934;50.852;8.098;2023-05-17T03:48:09;15.85;;;4.15;;
9789;SDS011;4934;50.852;8.098;2023-05-17T03:50:35;9.55;;;4.88;;
9789;SDS011;4934;50.852;8.098;2023-05-17T03:53:01;14.75;;;5.10;;
9789;SDS011;4934;50.852;8.098;2023-05-17T03:55:26;9.43;;;4.30;;
9789;SDS011;4934;50.852;8.098;2023-05-17T03:57:52;8.55;;;3.42;;
9789;SDS011;4934;50.852;8.098;2023-05-17T04:00:17;10.10;;;3.50;;
9789;SDS011;4934;50.852;8.098;2023-05-17T04:02:46;11.68;;;3.85;;
9789;SDS011;4934;50.852;8.098;2023-05-17T04:05:12;10.65;;;4.47;;
9789;SDS011;4934;50.852;8.098;2023-05-17T04:07:38;18.52;;;5.78;;
9789;SDS011;4934;50.852;8.098;2023-05-17T04:10:03;11.45;;;4.45;;
9789;SDS011;4934;50.852;8.098;2023-05-17T04:12:30;14.00;;;3.90;;
9789;SDS011;4934;50.852;8.098;2023-05-17T04:14:55;13.60;;;4.45;;
9789;SDS011;4934;50.852;8.098;2023-05-17T04:17:21;14.75;;;5.40;;
9789;SDS011;4934;50.852;8.098;2023-05-17T04:19:46;26.48;;;7.72;;
9789;SDS011;4934;50.852;8.098;2023-05-17T04:22:12;16.08;;;6.22;;
9789;SDS011;4934;50.852;8.098;2023-05-17T04:24:38;22.98;;;7.68;;
9789;SDS011;4934;50.852;8.098;2023-05-17T04:27:03;19.80;;;6.63;;
9789;SDS011;4934;50.852;8.098;2023-05-17T04:29:29;22.75;;;7.80;;
9789;SDS011;4934;50.852;8.098;2023-05-17T04:31:55;19.98;;;7.78;;
9789;SDS011;4934;50.852;8.098;2023-05-17T04:34:20;18.30;;;7.00;;
9789;SDS011;4934;50.852;8.098;2023-05-17T04:36:47;19.88;;;6.50;;
9789;SDS011;4934;50.852;8.098;2023-05-17T04:39:13;13.27;;;5.82;;
9789;SDS011;4934;50.852;8.098;2023-05-17T04:41:38;20.50;;;5.63;;
9789;SDS011;4934;50.852;8.098;2023-05-17T04:44:04;12.23;;;5.60;;
9789;SDS011;4934;50.852;8.098;2023-05-17T04:46:31;27.55;;;8.40;;
9789;SDS011;4934;50.852;8.098;2023-05-17T04:48:57;15.43;;;5.53;;
9789;SDS011;4934;50.852;8.098;2023-05-17T04:51:22;18.40;;;5.57;;
9789;SDS011;4934;50.852;8.098;2023-05-17T04:53:48;18.67;;;5.72;;
9789;SDS011;4934;50.852;8.098;2023-05-17T04:56:13;10.15;;;5.15;;
9789;SDS011;4934;50.852;8.098;2023-05-17T04:58:39;17.67;;;5.30;;
9789;SDS011;4934;50.852;8.098;2023-05-17T05:01:05;21.45;;;6.88;;
9789;SDS011;4934;50.852;8.098;2023-05-17T05:03:30;15.43;;;5.60;;
9789;SDS011;4934;50.852;8.098;2023-05-17T05:05:56;22.08;;;5.78;;
9789;SDS011;4934;50.852;8.098;2023-05-17T05:08:21;19.38;;;5.45;;
9789;SDS011;4934;50.852;8.098;2023-05-17T05:10:47;13.30;;;5.15;;
9789;SDS011;4934;50.852;8.098;2023-05-17T05:13:13;17.15;;;5.75;;
9789;SDS011;4934;50.852;8.098;2023-05-17T05:15:38;15.23;;;5.65;;
9789;SDS011;4934;50.852;8.098;2023-05-17T05:18:04;21.25;;;6.45;;
9789;SDS011;4934;50.852;8.098;2023-05-17T05:20:30;18.02;;;5.55;;
9789;SDS011;4934;50.852;8.098;2023-05-17T05:22:55;22.20;;;6.38;;
9789;SDS011;4934;50.852;8.098;2023-05-17T05:25:22;17.77;;;6.85;;
9789;SDS011;4934;50.852;8.098;2023-05-17T05:27:48;22.10;;;7.47;;
9789;SDS011;4934;50.852;8.098;2023-05-17T05:30:13;25.52;;;6.75;;
9789;SDS011;4934;50.852;8.098;2023-05-17T05:32:47;23.27;;;6.43;;
9789;SDS011;4934;50.852;8.098;2023-05-17T05:35:13;14.00;;;5.90;;
9789;SDS011;4934;50.852;8.098;2023-05-17T05:37:40;19.60;;;6.13;;
9789;SDS011;4934;50.852;8.098;2023-05-17T05:40:06;17.63;;;6.60;;
9789;SDS011;4934;50.852;8.098;2023-05-17T05:42:32;16.45;;;6.55;;
9789;SDS011;4934;50.852;8.098;2023-05-17T05:44:58;20.08;;;7.25;;
9789;SDS011;4934;50.852;8.098;2023-05-17T05:47:24;27.42;;;7.65;;
9789;SDS011;4934;50.852;8.098;2023-05-17T05:49:49;25.58;;;7.15;;
9789;SDS011;4934;50.852;8.098;2023-05-17T05:52:15;23.75;;;7.13;;
9789;SDS011;4934;50.852;8.098;2023-05-17T05:54:40;18.08;;;7.22;;
9789;SDS011;4934;50.852;8.098;2023-05-17T05:57:06;18.48;;;6.40;;
9789;SDS011;4934;50.852;8.098;2023-05-17T05:59:32;18.60;;;7.22;;
9789;SDS011;4934;50.852;8.098;2023-05-17T06:01:57;23.27;;;7.05;;
9789;SDS011;4934;50.852;8.098;2023-05-17T06:04:23;13.52;;;6.47;;
9789;SDS011;4934;50.852;8.098;2023-05-17T06:06:49;19.77;;;6.65;;
9789;SDS011;4934;50.852;8.098;2023-05-17T06:09:15;27.55;;;6.63;;
9789;SDS011;4934;50.852;8.098;2023-05-17T06:11:40;16.38;;;6.18;;
9789;SDS011;4934;50.852;8.098;2023-05-17T06:14:06;21.30;;;6.72;;
9789;SDS011;4934;50.852;8.098;2023-05-17T06:16:32;23.05;;;6.63;;
9789;SDS011;4934;50.852;8.098;2023-05-17T06:18:58;12.93;;;6.55;;
9789;SDS011;4934;50.852;8.098;2023-05-17T06:21:24;16.13;;;6.65;;
9789;SDS011;4934;50.852;8.098;2023-05-17T06:23:50;17.92;;;7.07;;
9789;SDS011;4934;50.852;8.098;2023-05-17T06:26:16;19.85;;;6.55;;
9789;SDS011;4934;50.852;8.098;2023-05-17T06:28:41;24.73;;;6.82;;
9789;SDS011;4934;50.852;8.098;2023-05-17T06:31:07;14.40;;;6.22;;
9789;SDS011;4934;50.852;8.098;2023-05-17T06:33:33;17.42;;;5.57;;
9789;SDS011;4934;50.852;8.098;2023-05-17T06:35:58;23.48;;;8.40;;
9789;SDS011;4934;50.852;8.098;2023-05-17T06:38:24;15.80;;;5.93;;
9789;SDS011;4934;50.852;8.098;2023-05-17T06:40:55;17.85;;;6.03;;
9789;SDS011;4934;50.852;8.098;2023-05-17T06:43:22;15.48;;;6.85;;
9789;SDS011;4934;50.852;8.098;2023-05-17T06:45:48;19.25;;;6.13;;
9789;SDS011;4934;50.852;8.098;2023-05-17T06:48:14;19.35;;;5.50;;
9789;SDS011;4934;50.852;8.098;2023-05-17T06:50:40;14.73;;;5.90;;
9789;SDS011;4934;50.852;8.098;2023-05-17T06:53:05;22.50;;;5.07;;
9789;SDS011;4934;50.852;8.098;2023-05-17T06:55:31;17.33;;;5.50;;
9789;SDS011;4934;50.852;8.098;2023-05-17T06:57:56;15.73;;;4.15;;
9789;SDS011;4934;50.852;8.098;2023-05-17T07:00:24;16.27;;;4.13;;
9789;SDS011;4934;50.852;8.098;2023-05-17T07:02:49;9.15;;;2.60;;
9789;SDS011;4934;50.852;8.098;2023-05-17T07:05:15;8.07;;;2.35;;
9789;SDS011;4934;50.852;8.098;2023-05-17T07:07:40;6.55;;;1.80;;
9789;SDS011;4934;50.852;8.098;2023-05-17T07:10:06;7.43;;;2.45;;
9789;SDS011;4934;50.852;8.098;2023-05-17T07:12:32;9.90;;;2.53;;
9789;SDS011;4934;50.852;8.098;2023-05-17T07:14:58;9.65;;;2.63;;
9789;SDS011;4934;50.852;8.098;2023-05-17T07:17:23;8.05;;;1.92;;
9789;SDS011;4934;50.852;8.098;2023-05-17T07:19:49;9.57;;;2.72;;
9789;SDS011;4934;50.852;8.098;2023-05-17T07:22:15;7.55;;;2.53;;
9789;SDS011;4934;50.852;8.098;2023-05-17T07:24:42;8.90;;;1.70;;
9789;SDS011;4934;50.852;8.098;2023-05-17T07:27:08;7.82;;;2.25;;
9789;SDS011;4934;50.852;8.098;2023-05-17T07:29:34;10.05;;;1.90;;
9789;SDS011;4934;50.852;8.098;2023-05-17T07:31:59;7.57;;;1.75;;
9789;SDS011;4934;50.852;8.098;2023-05-17T07:34:25;10.75;;;1.90;;
9789;SDS011;4934;50.852;8.098;2023-05-17T07:36:50;10.18;;;1.92;;
9789;SDS011;4934;50.852;8.098;2023-05-17T07:39:16;9.35;;;2.50;;
9789;SDS011;4934;50.852;8.098;2023-05-17T07:41:42;9.38;;;2.58;;
9789;SDS011;4934;50.852;8.098;2023-05-17T07:44:07;19.58;;;2.72;;
9789;SDS011;4934;50.852;8.098;2023-05-17T07:46:33;21.08;;;2.47;;
9789;SDS011;4934;50.852;8.098;2023-05-17T07:48:58;13.02;;;2.70;;
9789;SDS011;4934;50.852;8.098;2023-05-17T07:51:24;8.13;;;1.90;;
9789;SDS011;4934;50.852;8.098;2023-05-17T07:53:50;10.20;;;2.17;;
9789;SDS011;4934;50.852;8.098;2023-05-17T07:56:16;7.10;;;2.30;;
9789;SDS011;4934;50.852;8.098;2023-05-17T07:58:41;14.57;;;2.50;;
9789;SDS011;4934;50.852;8.098;2023-05-17T08:01:07;15.05;;;2.05;;
9789;SDS011;4934;50.852;8.098;2023-05-17T08:03:33;7.75;;;2.13;;
9789;SDS011;4934;50.852;8.098;2023-05-17T08:06:00;10.52;;;1.92;;
9789;SDS011;4934;50.852;8.098;2023-05-17T08:08:26;11.23;;;2.25;;
9789;SDS011;4934;50.852;8.098;2023-05-17T08:10:51;8.23;;;1.70;;
9789;SDS011;4934;50.852;8.098;2023-05-17T08:13:17;11.45;;;2.22;;
9789;SDS011;4934;50.852;8.098;2023-05-17T08:15:43;10.40;;;2.30;;
9789;SDS011;4934;50.852;8.098;2023-05-17T08:18:08;10.88;;;1.83;;
9789;SDS011;4934;50.852;8.098;2023-05-17T08:20:34;5.72;;;1.73;;
9789;SDS011;4934;50.852;8.098;2023-05-17T08:23:00;13.80;;;2.40;;
9789;SDS011;4934;50.852;8.098;2023-05-17T08:25:26;10.07;;;2.28;;
9789;SDS011;4934;50.852;8.098;2023-05-17T08:27:51;9.35;;;1.98;;
9789;SDS011;4934;50.852;8.098;2023-05-17T08:30:17;14.70;;;2.75;;
9789;SDS011;4934;50.852;8.098;2023-05-17T08:32:43;8.50;;;2.05;;
9789;SDS011;4934;50.852;8.098;2023-05-17T08:35:09;11.90;;;1.95;;
9789;SDS011;4934;50.852;8.098;2023-05-17T08:37:35;22.05;;;2.42;;
9789;SDS011;4934;50.852;8.098;2023-05-17T08:40:01;11.65;;;2.72;;
9789;SDS011;4934;50.852;8.098;2023-05-17T08:42:28;12.77;;;1.60;;
9789;SDS011;4934;50.852;8.098;2023-05-17T08:44:54;14.63;;;2.40;;
9789;SDS011;4934;50.852;8.098;2023-05-17T08:47:20;14.23;;;2.45;;
9789;SDS011;4934;50.852;8.098;2023-05-17T08:49:53;10.90;;;1.95;;
9789;SDS011;4934;50.852;8.098;2023-05-17T08:52:21;10.95;;;2.20;;
9789;SDS011;4934;50.852;8.098;2023-05-17T08:54:47;12.95;;;2.40;;
9789;SDS011;4934;50.852;8.098;2023-05-17T08:57:13;18.02;;;2.25;;
9789;SDS011;4934;50.852;8.098;2023-05-17T09:02:08;12.07;;;2.22;;
9789;SDS011;4934;50.852;8.098;2023-05-17T09:04:34;11.65;;;2.03;;
9789;SDS011;4934;50.852;8.098;2023-05-17T09:07:01;7.78;;;1.50;;
9789;SDS011;4934;50.852;8.098;2023-05-17T09:09:27;7.50;;;1.67;;
9789;SDS011;4934;50.852;8.098;2023-05-17T09:11:52;14.90;;;2.00;;
9789;SDS011;4934;50.852;8.098;2023-05-17T09:14:19;8.80;;;2.47;;
9789;SDS011;4934;50.852;8.098;2023-05-17T09:16:44;17.35;;;2.53;;
9789;SDS011;4934;50.852;8.098;2023-05-17T09:19:13;15.82;;;2.22;;
9789;SDS011;4934;50.852;8.098;2023-05-17T09:21:44;6.78;;;2.53;;
9789;SDS011;4934;50.852;8.098;2023-05-17T09:24:12;8.57;;;1.80;;
9789;SDS011;4934;50.852;8.098;2023-05-17T09:26:42;10.55;;;2.00;;
9789;SDS011;4934;50.852;8.098;2023-05-17T09:29:13;10.70;;;2.08;;
9789;SDS011;4934;50.852;8.098;2023-05-17T09:31:40;10.43;;;2.05;;
9789;SDS011;4934;50.852;8.098;2023-05-17T09:34:06;10.52;;;2.13;;
9789;SDS011;4934;50.852;8.098;2023-05-17T09:36:34;9.85;;;2.40;;
9789;SDS011;4934;50.852;8.098;2023-05-17T09:39:02;8.77;;;1.85;;
9789;SDS011;4934;50.852;8.098;2023-05-17T09:41:43;14.10;;;3.13;;
9789;SDS011;4934;50.852;8.098;2023-05-17T09:44:11;7.32;;;1.77;;
9789;SDS011;4934;50.852;8.098;2023-05-17T09:46:41;10.98;;;2.47;;
9789;SDS011;4934;50.852;8.098;2023-05-17T09:49:09;9.77;;;2.03;;
9789;SDS011;4934;50.852;8.098;2023-05-17T09:51:42;8.90;;;2.63;;
9789;SDS011;4934;50.852;8.098;2023-05-17T09:54:11;8.45;;;1.98;;
9789;SDS011;4934;50.852;8.098;2023-05-17T09:56:37;13.60;;;1.98;;
9789;SDS011;4934;50.852;8.098;2023-05-17T09:59:09;9.15;;;1.60;;
9789;SDS011;4934;50.852;8.098;2023-05-17T10:01:35;11.65;;;2.03;;
9789;SDS011;4934;50.852;8.098;2023-05-17T10:04:04;14.27;;;2.42;;
9789;SDS011;4934;50.852;8.098;2023-05-17T10:06:32;10.88;;;2.20;;
9789;SDS011;4934;50.852;8.098;2023-05-17T10:09:02;10.25;;;2.00;;
9789;SDS011;4934;50.852;8.098;2023-05-17T10:11:30;16.67;;;3.35;;
9789;SDS011;4934;50.852;8.098;2023-05-17T10:14:04;14.15;;;2.55;;
9789;SDS011;4934;50.852;8.098;2023-05-17T10:16:37;11.82;;;2.50;;
9789;SDS011;4934;50.852;8.098;2023-05-17T10:19:03;11.38;;;2.22;;
9789;SDS011;4934;50.852;8.098;2023-05-17T10:21:30;9.02;;;2.33;;
9789;SDS011;4934;50.852;8.098;2023-05-17T10:23:59;7.97;;;2.47;;
9789;SDS011;4934;50.852;8.098;2023-05-17T10:26:26;8.55;;;1.90;;
9789;SDS011;4934;50.852;8.098;2023-05-17T10:28:54;10.48;;;2.28;;
9789;SDS011;4934;50.852;8.098;2023-05-17T10:31:24;7.35;;;2.22;;
9789;SDS011;4934;50.852;8.098;2023-05-17T10:33:53;12.05;;;1.95;;
9789;SDS011;4934;50.852;8.098;2023-05-17T10:36:19;10.05;;;2.72;;
9789;SDS011;4934;50.852;8.098;2023-05-17T10:38:47;26.37;;;2.43;;
9789;SDS011;4934;50.852;8.098;2023-05-17T10:41:13;13.13;;;2.45;;
9789;SDS011;4934;50.852;8.098;2023-05-17T10:43:41;9.70;;;1.75;;
9789;SDS011;4934;50.852;8.098;2023-05-17T10:46:13;8.43;;;2.10;;
9789;SDS011;4934;50.852;8.098;2023-05-17T10:48:40;9.90;;;2.70;;
9789;SDS011;4934;50.852;8.098;2023-05-17T10:51:06;6.97;;;1.92;;
9789;SDS011;4934;50.852;8.098;2023-05-17T10:53:32;8.23;;;2.03;;
9789;SDS011;4934;50.852;8.098;2023-05-17T10:55:58;11.45;;;2.15;;
9789;SDS011;4934;50.852;8.098;2023-05-17T10:58:26;13.05;;;3.17;;
9789;SDS011;4934;50.852;8.098;2023-05-17T11:00:53;4.78;;;1.40;;
9789;SDS011;4934;50.852;8.098;2023-05-17T11:03:19;4.95;;;1.42;;
9789;SDS011;4934;50.852;8.098;2023-05-17T11:08:34;9.13;;;1.67;;
9789;SDS011;4934;50.852;8.098;2023-05-17T11:11:33;8.52;;;2.17;;
9789;SDS011;4934;50.852;8.098;2023-05-17T11:13:54;9.18;;;1.92;;
9789;SDS011;4934;50.852;8.098;2023-05-17T11:16:21;11.93;;;1.83;;
9789;SDS011;4934;50.852;8.098;2023-05-17T11:18:51;10.05;;;1.63;;
9789;SDS011;4934;50.852;8.098;2023-05-17T11:21:19;6.53;;;1.60;;
9789;SDS011;4934;50.852;8.098;2023-05-17T11:23:46;12.57;;;2.53;;
9789;SDS011;4934;50.852;8.098;2023-05-17T11:26:20;6.05;;;1.55;;
9789;SDS011;4934;50.852;8.098;2023-05-17T11:28:46;6.63;;;1.52;;
9789;SDS011;4934;50.852;8.098;2023-05-17T11:31:13;6.35;;;1.80;;
9789;SDS011;4934;50.852;8.098;2023-05-17T11:33:42;11.95;;;2.13;;
9789;SDS011;4934;50.852;8.098;2023-05-17T11:36:27;7.30;;;1.67;;
9789;SDS011;4934;50.852;8.098;2023-05-17T11:41:36;10.10;;;2.00;;
9789;SDS011;4934;50.852;8.098;2023-05-17T11:44:05;6.18;;;1.52;;
9789;SDS011;4934;50.852;8.098;2023-05-17T11:46:32;5.72;;;1.67;;
9789;SDS011;4934;50.852;8.098;2023-05-17T11:48:58;15.57;;;2.20;;
9789;SDS011;4934;50.852;8.098;2023-05-17T11:51:25;8.75;;;1.92;;
9789;SDS011;4934;50.852;8.098;2023-05-17T11:53:54;5.47;;;1.60;;
9789;SDS011;4934;50.852;8.098;2023-05-17T11:56:21;7.60;;;1.70;;
9789;SDS011;4934;50.852;8.098;2023-05-17T11:58:50;6.18;;;1.73;;
9789;SDS011;4934;50.852;8.098;2023-05-17T12:01:17;8.23;;;2.17;;
9789;SDS011;4934;50.852;8.098;2023-05-17T12:03:43;8.48;;;2.10;;
9789;SDS011;4934;50.852;8.098;2023-05-17T12:06:11;9.68;;;1.92;;
9789;SDS011;4934;50.852;8.098;2023-05-17T12:08:39;9.32;;;1.90;;
9789;SDS011;4934;50.852;8.098;2023-05-17T12:11:09;10.02;;;1.80;;
9789;SDS011;4934;50.852;8.098;2023-05-17T12:13:37;10.60;;;2.20;;
9789;SDS011;4934;50.852;8.098;2023-05-17T12:16:06;12.93;;;2.22;;
9789;SDS011;4934;50.852;8.098;2023-05-17T12:18:39;11.23;;;2.42;;
9789;SDS011;4934;50.852;8.098;2023-05-17T12:21:06;4.70;;;1.55;;
9789;SDS011;4934;50.852;8.098;2023-05-17T12:23:36;7.15;;;1.80;;
9789;SDS011;4934;50.852;8.098;2023-05-17T12:28:36;7.10;;;2.00;;
9789;SDS011;4934;50.852;8.098;2023-05-17T12:31:04;3.65;;;1.75;;
9789;SDS011;4934;50.852;8.098;2023-05-17T12:33:39;10.00;;;2.15;;
9789;SDS011;4934;50.852;8.098;2023-05-17T12:36:07;6.78;;;1.67;;
9789;SDS011;4934;50.852;8.098;2023-05-17T12:38:34;8.82;;;1.90;;
9789;SDS011;4934;50.852;8.098;2023-05-17T12:41:02;10.15;;;2.63;;
9789;SDS011;4934;50.852;8.098;2023-05-17T12:43:29;8.20;;;1.80;;
9789;SDS011;4934;50.852;8.098;2023-05-17T12:46:04;6.30;;;1.80;;
9789;SDS011;4934;50.852;8.098;2023-05-17T12:48:36;7.18;;;2.15;;
9789;SDS011;4934;50.852;8.098;2023-05-17T12:51:12;9.35;;;2.30;;
9789;SDS011;4934;50.852;8.098;2023-05-17T12:53:43;9.68;;;2.08;;
9789;SDS011;4934;50.852;8.098;2023-05-17T12:56:14;7.95;;;1.70;;
9789;SDS011;4934;50.852;8.098;2023-05-17T12:58:41;8.05;;;1.60;;
9789;SDS011;4934;50.852;8.098;2023-05-17T13:01:07;6.95;;;1.85;;
9789;SDS011;4934;50.852;8.098;2023-05-17T13:03:38;12.07;;;2.10;;
9789;SDS011;4934;50.852;8.098;2023-05-17T13:06:06;9.50;;;1.92;;
9789;SDS011;4934;50.852;8.098;2023-05-17T13:08:34;7.03;;;1.65;;
9789;SDS011;4934;50.852;8.098;2023-05-17T13:11:06;8.48;;;1.60;;
9789;SDS011;4934;50.852;8.098;2023-05-17T13:13:37;6.38;;;1.60;;
9789;SDS011;4934;50.852;8.098;2023-05-17T13:16:03;6.65;;;1.55;;
9789;SDS011;4934;50.852;8.098;2023-05-17T13:18:29;9.38;;;1.85;;
9789;SDS011;4934;50.852;8.098;2023-05-17T13:20:59;9.02;;;2.03;;
9789;SDS011;4934;50.852;8.098;2023-05-17T13:23:25;7.25;;;1.65;;
9789;SDS011;4934;50.852;8.098;2023-05-17T13:25:51;8.20;;;2.00;;
9789;SDS011;4934;50.852;8.098;2023-05-17T13:28:18;5.88;;;1.75;;
9789;SDS011;4934;50.852;8.098;2023-05-17T13:30:43;15.90;;;2.85;;
9789;SDS011;4934;50.852;8.098;2023-05-17T13:33:15;6.22;;;1.88;;
9789;SDS011;4934;50.852;8.098;2023-05-17T13:35:41;11.13;;;1.92;;
9789;SDS011;4934;50.852;8.098;2023-05-17T13:38:07;7.93;;;2.03;;
9789;SDS011;4934;50.852;8.098;2023-05-17T13:40:33;5.03;;;2.28;;
9789;SDS011;4934;50.852;8.098;2023-05-17T13:42:58;6.72;;;2.08;;
9789;SDS011;4934;50.852;8.098;2023-05-17T13:45:24;10.70;;;2.08;;
9789;SDS011;4934;50.852;8.098;2023-05-17T13:47:49;9.90;;;3.03;;
9789;SDS011;4934;50.852;8.098;2023-05-17T13:50:15;7.88;;;2.58;;
9789;SDS011;4934;50.852;8.098;2023-05-17T13:52:41;10.00;;;2.10;;
9789;SDS011;4934;50.852;8.098;2023-05-17T13:55:07;8.95;;;1.65;;
9789;SDS011;4934;50.852;8.098;2023-05-17T13:57:33;7.07;;;1.75;;
9789;SDS011;4934;50.852;8.098;2023-05-17T13:59:59;10.90;;;2.50;;
9789;SDS011;4934;50.852;8.098;2023-05-17T14:02:24;12.75;;;1.63;;
9789;SDS011;4934;50.852;8.098;2023-05-17T14:04:50;10.48;;;2.15;;
9789;SDS011;4934;50.852;8.098;2023-05-17T14:07:16;8.55;;;2.22;;
9789;SDS011;4934;50.852;8.098;2023-05-17T14:09:41;6.43;;;2.50;;
9789;SDS011;4934;50.852;8.098;2023-05-17T14:12:07;8.50;;;2.55;;
9789;SDS011;4934;50.852;8.098;2023-05-17T14:14:33;7.68;;;2.47;;
9789;SDS011;4934;50.852;8.098;2023-05-17T14:16:59;10.55;;;1.90;;
9789;SDS011;4934;50.852;8.098;2023-05-17T14:19:25;9.45;;;1.70;;
9789;SDS011;4934;50.852;8.098;2023-05-17T14:21:51;10.02;;;2.05;;
9789;SDS011;4934;50.852;8.098;2023-05-17T14:24:16;15.00;;;2.80;;
9789;SDS011;4934;50.852;8.098;2023-05-17T14:26:42;13.65;;;3.00;;
9789;SDS011;4934;50.852;8.098;2023-05-17T14:29:08;11.15;;;1.92;;
9789;SDS011;4934;50.852;8.098;2023-05-17T14:31:33;9.48;;;3.00;;
9789;SDS011;4934;50.852;8.098;2023-05-17T14:33:59;9.35;;;2.22;;
9789;SDS011;4934;50.852;8.098;2023-05-17T14:36:27;10.35;;;2.88;;
9789;SDS011;4934;50.852;8.098;2023-05-17T14:38:52;7.78;;;2.67;;
9789;SDS011;4934;50.852;8.098;2023-05-17T14:41:18;10.85;;;2.10;;
9789;SDS011;4934;50.852;8.098;2023-05-17T14:43:44;7.78;;;1.90;;
9789;SDS011;4934;50.852;8.098;2023-05-17T14:46:09;8.15;;;2.28;;
9789;SDS011;4934;50.852;8.098;2023-05-17T14:48:35;12.07;;;2.95;;
9789;SDS011;4934;50.852;8.098;2023-05-17T14:51:01;9.45;;;2.25;;
9789;SDS011;4934;50.852;8.098;2023-05-17T14:53:27;8.32;;;2.10;;
9789;SDS011;4934;50.852;8.098;2023-05-17T14:55:53;6.38;;;2.45;;
9789;SDS011;4934;50.852;8.098;2023-05-17T14:58:21;9.43;;;2.15;;
9789;SDS011;4934;50.852;8.098;2023-05-17T15:00:46;10.77;;;2.30;;
9789;SDS011;4934;50.852;8.098;2023-05-17T15:05:41;7.70;;;2.35;;
9789;SDS011;4934;50.852;8.098;2023-05-17T15:08:07;12.43;;;2.20;;
9789;SDS011;4934;50.852;8.098;2023-05-17T15:10:32;6.80;;;2.28;;
9789;SDS011;4934;50.852;8.098;2023-05-17T15:12:59;7.80;;;1.92;;
9789;SDS011;4934;50.852;8.098;2023-05-17T15:15:25;11.88;;;2.22;;
9789;SDS011;4934;50.852;8.098;2023-05-17T15:17:51;8.32;;;2.00;;
9789;SDS011;4934;50.852;8.098;2023-05-17T15:20:20;13.02;;;3.17;;
9789;SDS011;4934;50.852;8.098;2023-05-17T15:22:45;9.15;;;2.10;;
9789;SDS011;4934;50.852;8.098;2023-05-17T15:25:12;7.03;;;1.83;;
9789;SDS011;4934;50.852;8.098;2023-05-17T15:27:37;8.60;;;1.95;;